Strona główna
METAR-TAF:

METAR-TAF

Lotnisko :

Sable Island, Nowa Szkocja, Kanada

Szerokość geograficzna: 43-56N, Długość geograficzna: 060-01W, wysokość: 4 m

Aktualna obserwacja pogody

Raport powstał 18 minut temu, godzina 05:41 UTC
Wiatr 13 kt od wschód w porywach dochodzący do 19 kt
Temperatura 1°C
Wilgotność 80%
Ciśnienie 1018 hPa
Widzialność: 14.5 km
Przerywane chmury na wysokości 2000 ft
Przerywane chmury na wysokości 23000 ft

METAR: CWSA 170541Z AUTO 08013G19KT 9SM BKN020 BKN230 01/M02 A3005 RMK SLP179

czas: 01:59 (05:59 UTC)

Prognoza

Raport powstał 10 godziny i 21 minut temu, godzina 19:38 UTC
Prognoza ważna od 16 godzina 20 UTC do 17 godzina 01 UTC
Wiatr 6 kt od północny zachód
Widzialność: 10 km
Rozproszone chmury na wysokości 24000 ft
Stopniowe zmiany
od 16 godzina 22 UTC do 16 godzina 24 UTC
Wiatr 8 kt od północny wschód

TAF: CWSA 161938Z 1620/1701 32006KT P6SM SCT240 BECMG 1622/1624 05008KT RMK FCST BASED ON AUTO OBS. NXT FCST WILL BE ISSUED AT 170845Z

Obserwacja i prognoza pogody dla ponad 4000 lotnisk (raport METAR i TAF).

Dostępne stacje oznaczono żółtymi i czerwonymi punktami na mapie.

Najedź kursorem aby zobaczyć nazwę stacji.

Kliknij aby zobaczyć obserwacje i prognozy pogody.

Aby zmienić mapę: kliknij na zielony przycisk z czarnym krzyżykiem, aby powiększyć; na zielony przycisk z myślnikiem, aby pomniejszyć; na zielone strzałki, aby przejść do map sąsiednich.


METAR-TAF: